createdAt,value
2019-05-17T00:01:49.485Z,5.10
2019-05-17T00:04:20.634Z,5.00
2019-05-17T00:06:51.632Z,5.00
2019-05-17T00:09:22.578Z,5.00
2019-05-17T00:11:53.567Z,4.90
2019-05-17T00:14:24.518Z,4.80
2019-05-17T00:16:57.326Z,4.60
2019-05-17T00:19:28.163Z,4.60
2019-05-17T00:21:59.135Z,4.60
2019-05-17T00:24:30.077Z,4.60
2019-05-17T00:27:01.054Z,4.50
2019-05-17T00:29:31.998Z,4.50
2019-05-17T00:32:02.986Z,4.60
2019-05-17T00:34:33.925Z,4.60
2019-05-17T00:37:07.002Z,4.50
2019-05-17T00:39:37.553Z,4.50
2019-05-17T00:42:08.531Z,4.40
2019-05-17T00:44:39.502Z,4.30
2019-05-17T00:47:10.985Z,4.40
2019-05-17T00:49:42.036Z,4.40
2019-05-17T00:52:12.975Z,4.40
2019-05-17T00:54:43.950Z,4.30
2019-05-17T00:57:16.625Z,4.20
2019-05-17T00:59:47.750Z,4.10
2019-05-17T01:02:18.692Z,4.00
2019-05-17T01:04:49.671Z,4.10
2019-05-17T01:07:20.613Z,4.10
2019-05-17T01:09:52.017Z,4.00
2019-05-17T01:12:22.965Z,4.10
2019-05-17T01:14:53.948Z,4.10
2019-05-17T01:17:26.945Z,4.00
2019-05-17T01:19:57.626Z,4.00
2019-05-17T01:22:28.579Z,3.90
2019-05-17T01:24:59.570Z,3.80
2019-05-17T01:27:30.525Z,3.70
2019-05-17T01:30:01.586Z,3.70
2019-05-17T01:32:33.840Z,3.70
2019-05-17T01:35:07.295Z,3.70
2019-05-17T01:37:38.590Z,3.70
2019-05-17T01:40:09.846Z,3.70
2019-05-17T01:42:40.931Z,3.60
2019-05-17T01:45:12.318Z,3.60
2019-05-17T01:47:43.297Z,3.60
2019-05-17T01:50:14.550Z,3.60
2019-05-17T01:52:46.199Z,3.60
2019-05-17T01:55:17.534Z,3.50
2019-05-17T01:57:48.596Z,3.40
2019-05-17T02:00:20.033Z,3.40
2019-05-17T02:02:52.582Z,3.40
2019-05-17T02:05:23.549Z,3.30
2019-05-17T02:07:56.828Z,3.30
2019-05-17T02:10:27.247Z,3.20
2019-05-17T02:12:58.303Z,3.20
2019-05-17T02:15:29.256Z,3.20
2019-05-17T02:18:01.295Z,3.20
2019-05-17T02:20:32.250Z,3.20
2019-05-17T02:23:03.226Z,3.20
2019-05-17T02:25:36.676Z,3.30
2019-05-17T02:28:07.999Z,3.20
2019-05-17T02:30:39.381Z,3.10
2019-05-17T02:33:12.616Z,3.00
2019-05-17T02:35:43.203Z,3.00
2019-05-17T02:38:14.174Z,2.90
2019-05-17T02:40:45.193Z,2.90
2019-05-17T02:43:16.131Z,2.80
2019-05-17T02:45:47.115Z,2.80
2019-05-17T02:48:18.057Z,2.80
2019-05-17T02:50:49.036Z,2.80
2019-05-17T02:53:22.877Z,2.70
2019-05-17T02:55:53.895Z,2.70
2019-05-17T02:58:25.230Z,2.80
2019-05-17T03:00:56.211Z,2.90
2019-05-17T03:03:27.153Z,2.80
2019-05-17T03:05:58.186Z,2.90
2019-05-17T03:08:29.160Z,2.90
2019-05-17T03:11:03.203Z,2.80
2019-05-17T03:13:33.147Z,2.80
2019-05-17T03:16:04.338Z,2.90
2019-05-17T03:18:35.315Z,2.90
2019-05-17T03:21:06.295Z,2.90
2019-05-17T03:23:37.325Z,2.90
2019-05-17T03:26:08.286Z,2.80
2019-05-17T03:28:42.456Z,2.70
2019-05-17T03:31:17.071Z,2.80
2019-05-17T03:33:46.192Z,2.80
2019-05-17T03:36:18.605Z,2.90
2019-05-17T03:38:49.674Z,2.90
2019-05-17T03:41:27.862Z,3.10
2019-05-17T03:43:54.339Z,3.10
2019-05-17T03:46:25.301Z,3.00
2019-05-17T03:48:56.332Z,3.00
2019-05-17T03:51:28.852Z,3.00
2019-05-17T03:54:02.409Z,3.00
2019-05-17T03:56:33.135Z,3.10
2019-05-17T03:59:04.416Z,3.20
2019-05-17T04:01:35.769Z,3.40
2019-05-17T04:04:06.745Z,3.50
2019-05-17T04:06:37.759Z,3.60
2019-05-17T04:09:09.542Z,3.80
2019-05-17T04:11:42.913Z,3.80
2019-05-17T04:14:13.886Z,4.00
2019-05-17T04:16:45.312Z,4.20
2019-05-17T04:19:16.346Z,4.30
2019-05-17T04:21:47.388Z,4.30
2019-05-17T04:24:18.392Z,4.40
2019-05-17T04:26:52.029Z,4.40
2019-05-17T04:29:22.780Z,4.50
2019-05-17T04:31:54.983Z,4.60
2019-05-17T04:34:26.021Z,4.60
2019-05-17T04:36:56.996Z,4.60
2019-05-17T04:39:27.942Z,4.70
2019-05-17T04:41:58.924Z,4.70
2019-05-17T04:44:32.074Z,4.80
2019-05-17T04:47:03.293Z,4.80
2019-05-17T04:49:34.607Z,4.80
2019-05-17T04:52:05.651Z,4.80
2019-05-17T04:54:36.595Z,4.90
2019-05-17T04:57:07.568Z,5.00
2019-05-17T04:59:38.504Z,5.10
2019-05-17T05:02:12.916Z,5.20
2019-05-17T05:04:43.540Z,5.30
2019-05-17T05:07:14.884Z,5.60
2019-05-17T05:09:45.905Z,5.90
2019-05-17T05:12:16.875Z,5.80
2019-05-17T05:14:47.823Z,5.70
2019-05-17T05:17:22.193Z,5.70
2019-05-17T05:19:53.008Z,5.80
2019-05-17T05:22:24.212Z,5.80
2019-05-17T05:24:55.163Z,5.80
2019-05-17T05:27:26.135Z,5.80
2019-05-17T05:29:57.080Z,6.10
2019-05-17T05:32:28.067Z,6.10
2019-05-17T05:34:59.063Z,6.20
2019-05-17T05:37:32.989Z,6.40
2019-05-17T05:40:02.721Z,6.50
2019-05-17T05:42:33.740Z,6.50
2019-05-17T05:45:05.484Z,6.60
2019-05-17T05:47:36.465Z,6.70
2019-05-17T05:50:08.538Z,6.70
2019-05-17T05:52:41.901Z,7.00
2019-05-17T05:55:12.665Z,7.10
2019-05-17T05:57:43.786Z,7.30
2019-05-17T06:00:16.067Z,7.50
2019-05-17T06:02:47.119Z,7.70
2019-05-17T06:05:21.767Z,7.70
2019-05-17T06:07:52.272Z,7.90
2019-05-17T06:10:23.703Z,7.90
2019-05-17T06:12:54.774Z,8.10
2019-05-17T06:15:25.952Z,8.10
2019-05-17T06:17:56.984Z,8.30
2019-05-17T06:20:27.972Z,8.40
2019-05-17T06:22:58.910Z,8.50
2019-05-17T06:25:33.779Z,8.70
2019-05-17T06:28:03.782Z,8.90
2019-05-17T06:30:34.764Z,9.10
2019-05-17T06:33:05.941Z,9.20
2019-05-17T06:35:36.884Z,9.60
2019-05-17T06:38:07.855Z,9.80
2019-05-17T06:40:38.807Z,10.30
2019-05-17T06:43:12.786Z,10.40
2019-05-17T06:45:42.750Z,10.40
2019-05-17T06:48:13.733Z,10.50
2019-05-17T06:50:44.702Z,10.50
2019-05-17T06:53:15.759Z,10.60
2019-05-17T06:55:46.706Z,10.60
2019-05-17T06:58:17.694Z,10.70
2019-05-17T07:00:49.762Z,10.90
2019-05-17T07:03:21.006Z,11.10
2019-05-17T07:05:56.462Z,11.10
2019-05-17T07:08:29.484Z,11.10
2019-05-17T07:11:00.092Z,11.10
2019-05-17T07:13:31.129Z,11.20
2019-05-17T07:16:02.118Z,11.30
2019-05-17T07:18:33.066Z,11.30
2019-05-17T07:21:04.049Z,11.40
2019-05-17T07:23:35.193Z,11.40
2019-05-17T07:26:09.069Z,11.50
2019-05-17T07:28:40.403Z,11.50
2019-05-17T07:31:11.689Z,11.70
2019-05-17T07:33:42.643Z,11.80
2019-05-17T07:36:13.617Z,11.90
2019-05-17T07:38:44.565Z,11.90
2019-05-17T07:41:15.547Z,12.00
2019-05-17T07:43:46.490Z,12.10
2019-05-17T07:46:17.468Z,12.20
2019-05-17T07:48:49.717Z,12.30
2019-05-17T07:51:20.928Z,12.50
2019-05-17T07:53:51.914Z,12.60
2019-05-17T07:56:22.865Z,12.70
2019-05-17T07:58:53.855Z,12.70
2019-05-17T08:01:24.798Z,12.70
2019-05-17T08:03:55.801Z,12.80
2019-05-17T08:06:26.752Z,12.90
2019-05-17T08:09:03.898Z,13.00
2019-05-17T08:11:33.150Z,13.10
2019-05-17T08:14:04.126Z,13.30
2019-05-17T08:16:35.079Z,13.50
2019-05-17T08:19:06.058Z,13.60
2019-05-17T08:21:39.603Z,13.70
2019-05-17T08:24:10.462Z,13.80
2019-05-17T08:26:41.533Z,14.00
2019-05-17T08:29:12.513Z,13.90
2019-05-17T08:31:43.460Z,13.90
2019-05-17T08:34:14.482Z,13.90
2019-05-17T08:36:45.440Z,14.00
2019-05-17T08:39:16.426Z,14.10
2019-05-17T08:41:49.635Z,14.20
2019-05-17T08:44:20.058Z,14.30
2019-05-17T08:46:51.013Z,14.40
2019-05-17T08:49:22.003Z,14.60
2019-05-17T08:51:52.952Z,14.70
2019-05-17T08:54:23.937Z,14.80
2019-05-17T08:56:54.885Z,15.00
2019-05-17T08:59:25.873Z,15.20
2019-05-17T09:01:56.822Z,15.20
2019-05-17T09:04:29.753Z,15.30
2019-05-17T09:07:03.161Z,15.40
2019-05-17T09:09:33.138Z,15.50
2019-05-17T09:12:04.118Z,15.50
2019-05-17T09:14:35.102Z,15.50
2019-05-17T09:17:06.089Z,15.60
2019-05-17T09:19:39.365Z,15.60
2019-05-17T09:22:10.429Z,15.70
2019-05-17T09:24:41.636Z,15.80
2019-05-17T09:27:12.621Z,15.90
2019-05-17T09:29:43.568Z,16.10
2019-05-17T09:32:14.570Z,16.30
2019-05-17T09:34:45.569Z,16.40
2019-05-17T09:37:19.056Z,16.40
2019-05-17T09:39:49.376Z,16.50
2019-05-17T09:42:21.075Z,16.50
2019-05-17T09:44:52.183Z,16.60
2019-05-17T09:47:23.172Z,16.70
2019-05-17T09:49:55.263Z,18.00
2019-05-17T09:52:26.240Z,20.90
2019-05-17T09:54:57.297Z,23.30
2019-05-17T09:57:29.830Z,24.50
2019-05-17T10:00:01.006Z,26.90
2019-05-17T10:02:33.530Z,28.00
2019-05-17T10:05:06.713Z,28.00
2019-05-17T10:07:39.977Z,28.00
2019-05-17T10:10:10.927Z,29.30
2019-05-17T10:12:41.926Z,29.00
2019-05-17T10:15:12.898Z,30.10
2019-05-17T10:17:43.841Z,31.00
2019-05-17T10:20:15.673Z,31.10
2019-05-17T10:22:46.609Z,31.70
2019-05-17T10:25:19.971Z,31.80
2019-05-17T10:27:50.349Z,31.60
2019-05-17T10:30:21.349Z,31.40
2019-05-17T10:32:52.376Z,31.00
2019-05-17T10:35:23.351Z,31.10
2019-05-17T10:37:54.292Z,31.00
2019-05-17T10:40:25.551Z,31.80
2019-05-17T10:42:56.490Z,31.50
2019-05-17T10:45:27.463Z,30.70
2019-05-17T10:48:00.626Z,30.20
2019-05-17T10:50:31.099Z,30.00
2019-05-17T10:53:02.135Z,30.00
2019-05-17T10:55:33.108Z,30.20
2019-05-17T10:58:04.056Z,30.80
2019-05-17T11:00:35.041Z,31.30
2019-05-17T11:03:06.109Z,31.10
2019-05-17T11:05:39.909Z,31.00
2019-05-17T11:08:10.731Z,30.10
2019-05-17T11:10:41.980Z,30.40
2019-05-17T11:13:13.926Z,29.90
2019-05-17T11:15:45.890Z,30.50
2019-05-17T11:18:16.843Z,30.50
2019-05-17T11:20:47.805Z,30.10
2019-05-17T11:23:18.744Z,31.20
2019-05-17T11:25:49.727Z,31.80
2019-05-17T11:28:20.745Z,31.40
2019-05-17T11:30:51.716Z,31.70
2019-05-17T11:33:22.702Z,31.10
2019-05-17T11:35:54.188Z,31.60
2019-05-17T11:38:25.156Z,32.60
2019-05-17T11:40:56.195Z,32.20
2019-05-17T11:43:27.186Z,31.80
2019-05-17T11:45:58.175Z,31.90
2019-05-17T11:48:30.262Z,32.60
2019-05-17T11:51:01.198Z,32.20
2019-05-17T11:53:32.174Z,31.70
2019-05-17T11:56:03.118Z,31.40
2019-05-17T11:58:34.089Z,31.90
2019-05-17T12:01:05.136Z,32.10
2019-05-17T12:03:36.122Z,32.50
2019-05-17T12:06:07.063Z,32.80
2019-05-17T12:08:38.235Z,33.40
2019-05-17T12:11:09.220Z,33.90
2019-05-17T12:13:43.383Z,34.20
2019-05-17T12:16:12.890Z,34.00
2019-05-17T12:18:43.863Z,33.80
2019-05-17T12:21:14.936Z,33.20
2019-05-17T12:23:45.889Z,32.70
2019-05-17T12:26:16.860Z,33.80
2019-05-17T12:28:47.795Z,33.50
2019-05-17T12:31:18.768Z,33.70
2019-05-17T12:33:50.726Z,34.10
2019-05-17T12:36:21.848Z,34.00
2019-05-17T12:38:52.880Z,33.90
2019-05-17T12:41:23.904Z,33.70
2019-05-17T12:43:54.850Z,35.00
2019-05-17T12:46:26.817Z,34.60
2019-05-17T12:48:57.760Z,33.70
2019-05-17T12:51:32.884Z,34.80
2019-05-17T12:54:02.956Z,35.30
2019-05-17T12:56:34.001Z,34.80
2019-05-17T12:59:05.206Z,35.40
2019-05-17T13:01:36.171Z,35.50
2019-05-17T13:04:07.119Z,35.90
2019-05-17T13:06:38.094Z,35.60
2019-05-17T13:09:09.149Z,36.00
2019-05-17T13:11:40.121Z,35.60
2019-05-17T13:14:11.061Z,35.60
2019-05-17T13:16:42.035Z,35.60
2019-05-17T13:19:12.990Z,36.00
2019-05-17T13:21:43.968Z,36.10
2019-05-17T13:24:14.918Z,35.30
2019-05-17T13:26:45.888Z,35.90
2019-05-17T13:29:16.835Z,36.00
2019-05-17T13:31:47.809Z,36.30
2019-05-17T13:34:18.774Z,35.60
2019-05-17T13:36:49.758Z,34.40
2019-05-17T13:39:20.697Z,33.00
2019-05-17T13:41:51.675Z,32.20
2019-05-17T13:44:22.628Z,31.80
2019-05-17T13:46:53.588Z,32.40
2019-05-17T13:49:24.539Z,32.40
2019-05-17T13:51:55.516Z,31.50
2019-05-17T13:54:26.560Z,31.60
2019-05-17T13:56:57.572Z,30.40
2019-05-17T13:59:28.550Z,29.90
2019-05-17T14:01:59.565Z,30.10
2019-05-17T14:04:30.546Z,31.10
2019-05-17T14:07:01.484Z,32.50
2019-05-17T14:09:32.460Z,33.00
2019-05-17T14:12:03.424Z,33.80
2019-05-17T14:14:34.465Z,34.70
2019-05-17T14:17:05.904Z,34.70
2019-05-17T14:19:36.876Z,33.40
2019-05-17T14:22:07.822Z,31.80
2019-05-17T14:24:38.807Z,30.20
2019-05-17T14:27:09.753Z,28.80
2019-05-17T14:29:40.795Z,29.20
2019-05-17T14:32:12.311Z,29.10
2019-05-17T14:34:43.554Z,28.90
2019-05-17T14:37:14.508Z,29.00
2019-05-17T14:39:45.484Z,29.70
2019-05-17T14:42:16.431Z,29.30
2019-05-17T14:44:47.403Z,29.00
2019-05-17T14:47:18.337Z,28.30
2019-05-17T14:49:51.206Z,28.20
2019-05-17T14:52:21.978Z,27.70
2019-05-17T14:54:52.955Z,27.50
2019-05-17T14:57:23.940Z,27.50
2019-05-17T14:59:54.911Z,27.40
2019-05-17T15:02:25.935Z,26.50
2019-05-17T15:04:57.006Z,25.30
2019-05-17T15:07:28.050Z,24.50
2019-05-17T15:09:58.999Z,23.90
2019-05-17T15:12:29.993Z,23.90
2019-05-17T15:15:00.938Z,24.00
2019-05-17T15:17:34.989Z,24.10
2019-05-17T15:20:06.650Z,24.20
2019-05-17T15:22:37.624Z,23.50
2019-05-17T15:25:08.760Z,23.90
2019-05-17T15:27:39.727Z,25.00
2019-05-17T15:30:11.370Z,25.80
2019-05-17T15:32:42.353Z,25.90
2019-05-17T15:35:13.345Z,25.20
2019-05-17T15:37:44.320Z,24.40
2019-05-17T15:40:15.776Z,24.40
2019-05-17T15:42:46.757Z,24.10
2019-05-17T15:45:17.802Z,24.20
2019-05-17T15:47:48.775Z,23.60
2019-05-17T15:50:19.842Z,23.50
2019-05-17T15:52:50.824Z,23.30
2019-05-17T15:55:22.573Z,23.50
2019-05-17T15:57:53.812Z,23.50
2019-05-17T16:00:26.645Z,23.40
2019-05-17T16:02:57.619Z,23.30
2019-05-17T16:05:31.340Z,23.10
2019-05-17T16:10:51.151Z,22.80
2019-05-17T16:13:22.664Z,22.90
2019-05-17T16:15:53.978Z,23.20
2019-05-17T16:18:25.050Z,23.40
2019-05-17T16:20:56.395Z,23.70
2019-05-17T16:23:29.862Z,24.10
2019-05-17T16:26:00.831Z,24.90
2019-05-17T16:28:34.665Z,25.40
2019-05-17T16:31:05.917Z,25.80
2019-05-17T16:33:38.625Z,26.80
2019-05-17T16:36:09.622Z,27.30
2019-05-17T16:38:40.660Z,27.00
2019-05-17T16:41:11.679Z,26.20
2019-05-17T16:43:44.182Z,25.20
2019-05-17T16:46:15.197Z,24.20
2019-05-17T16:48:46.171Z,23.50
2019-05-17T16:51:17.258Z,23.30
2019-05-17T16:53:48.327Z,23.80
2019-05-17T16:56:19.377Z,24.00
2019-05-17T16:58:50.610Z,24.40
2019-05-17T17:01:23.232Z,25.20
2019-05-17T17:03:54.328Z,25.30
2019-05-17T17:06:25.635Z,25.20
2019-05-17T17:08:56.635Z,25.50
2019-05-17T17:11:27.826Z,25.40
2019-05-17T17:13:58.847Z,25.30
2019-05-17T17:16:29.821Z,24.70
2019-05-17T17:19:00.784Z,23.90
2019-05-17T17:21:31.759Z,23.40
2019-05-17T17:24:02.711Z,23.00
2019-05-17T17:26:33.689Z,22.50
2019-05-17T17:29:04.821Z,22.00
2019-05-17T17:31:36.069Z,21.60
2019-05-17T17:34:07.217Z,21.30
2019-05-17T17:36:38.472Z,21.10
2019-05-17T17:39:09.707Z,20.80
2019-05-17T17:41:40.941Z,20.40
2019-05-17T17:44:12.177Z,20.10
2019-05-17T17:46:43.403Z,19.70
2019-05-17T17:49:16.185Z,19.50
2019-05-17T17:51:47.708Z,19.30
2019-05-17T17:54:19.159Z,19.20
2019-05-17T17:56:50.437Z,18.90
2019-05-17T17:59:24.273Z,18.80
2019-05-17T18:01:55.304Z,18.50
2019-05-17T18:04:26.539Z,18.30
2019-05-17T18:06:58.106Z,18.20
2019-05-17T18:09:29.160Z,18.10
2019-05-17T18:12:00.107Z,17.90
2019-05-17T18:14:31.185Z,17.80
2019-05-17T18:17:02.139Z,17.60
2019-05-17T18:19:33.157Z,17.40
2019-05-17T18:22:04.146Z,17.30
2019-05-17T18:24:35.144Z,17.10
2019-05-17T18:27:06.188Z,17.00
2019-05-17T18:29:37.185Z,16.90
2019-05-17T18:32:09.632Z,16.70
2019-05-17T18:34:40.976Z,16.60
2019-05-17T18:37:12.038Z,16.40
2019-05-17T18:39:43.010Z,16.20
2019-05-17T18:42:13.958Z,16.10
2019-05-17T18:44:44.934Z,16.00
2019-05-17T18:47:15.879Z,15.90
2019-05-17T18:49:46.951Z,15.80
2019-05-17T18:52:21.188Z,15.50
2019-05-17T18:54:52.170Z,15.40
2019-05-17T18:57:23.290Z,15.20
2019-05-17T18:59:54.236Z,15.00
2019-05-17T19:02:25.231Z,14.80
2019-05-17T19:04:56.194Z,14.60
2019-05-17T19:07:27.247Z,14.60
2019-05-17T19:09:58.214Z,14.40
2019-05-17T19:12:29.227Z,14.30
2019-05-17T19:15:00.810Z,14.10
2019-05-17T19:17:33.538Z,14.00
2019-05-17T19:20:06.308Z,13.90
2019-05-17T19:22:37.548Z,13.80
2019-05-17T19:25:10.764Z,13.70
2019-05-17T19:27:44.464Z,13.60
2019-05-17T19:30:17.340Z,13.50
2019-05-17T19:32:48.817Z,13.40
2019-05-17T19:35:20.377Z,13.40
2019-05-17T19:37:54.696Z,13.20
2019-05-17T19:40:25.954Z,13.20
2019-05-17T19:42:56.944Z,13.20
2019-05-17T19:45:27.960Z,13.10
2019-05-17T19:47:59.018Z,13.00
2019-05-17T19:50:30.047Z,13.00
2019-05-17T19:53:01.106Z,13.00
2019-05-17T19:55:33.396Z,12.90
2019-05-17T19:58:04.522Z,12.80
2019-05-17T20:00:35.725Z,12.70
2019-05-17T20:03:06.712Z,12.60
2019-05-17T20:05:37.709Z,12.50
2019-05-17T20:08:08.746Z,12.50
2019-05-17T20:10:39.689Z,12.40
2019-05-17T20:13:10.792Z,12.40
2019-05-17T20:15:43.324Z,12.30
2019-05-17T20:18:15.078Z,12.20
2019-05-17T20:20:46.017Z,12.20
2019-05-17T20:23:18.067Z,12.20
2019-05-17T20:25:49.236Z,12.20
2019-05-17T20:28:20.186Z,12.10
2019-05-17T20:30:54.991Z,12.00
2019-05-17T20:33:26.322Z,11.90
2019-05-17T20:35:57.338Z,11.80
2019-05-17T20:38:28.289Z,11.80
2019-05-17T20:40:59.271Z,11.70
2019-05-17T20:43:30.229Z,11.70
2019-05-17T20:46:01.294Z,11.60
2019-05-17T20:48:32.279Z,11.50
2019-05-17T20:51:03.382Z,11.40
2019-05-17T20:53:34.402Z,11.30
2019-05-17T20:56:06.595Z,11.30
2019-05-17T20:58:37.539Z,11.30
2019-05-17T21:01:08.594Z,11.30
2019-05-17T21:03:39.616Z,11.20
2019-05-17T21:06:12.007Z,11.00
2019-05-17T21:08:45.888Z,11.00
2019-05-17T21:11:16.730Z,10.80
2019-05-17T21:13:47.702Z,10.70
2019-05-17T21:16:18.684Z,10.60
2019-05-17T21:18:49.616Z,10.50
2019-05-17T21:21:20.601Z,10.40
2019-05-17T21:23:51.558Z,10.30
2019-05-17T21:26:22.601Z,10.20
2019-05-17T21:28:53.630Z,10.10
2019-05-17T21:31:24.781Z,10.00
2019-05-17T21:33:55.805Z,10.00
2019-05-17T21:36:26.949Z,10.00
2019-05-17T21:38:57.948Z,10.00
2019-05-17T21:41:28.920Z,9.90
2019-05-17T21:44:01.534Z,9.90
2019-05-17T21:46:32.478Z,10.00
2019-05-17T21:49:03.518Z,10.30
2019-05-17T21:51:34.468Z,10.50
2019-05-17T21:54:05.438Z,10.40
2019-05-17T21:56:36.429Z,10.20
2019-05-17T21:59:07.496Z,10.10
2019-05-17T22:01:38.433Z,9.90
2019-05-17T22:04:09.406Z,9.70
2019-05-17T22:06:40.637Z,9.50
2019-05-17T22:09:11.651Z,9.30
2019-05-17T22:11:44.817Z,9.40
2019-05-17T22:14:15.908Z,9.40
2019-05-17T22:16:46.842Z,9.30
2019-05-17T22:19:17.808Z,9.10
2019-05-17T22:21:48.760Z,9.00
2019-05-17T22:24:19.742Z,8.90
2019-05-17T22:26:50.670Z,9.00
2019-05-17T22:29:21.687Z,9.30
2019-05-17T22:31:52.756Z,9.60
2019-05-17T22:34:24.088Z,9.60
2019-05-17T22:36:55.140Z,9.60
2019-05-17T22:39:26.129Z,9.50
2019-05-17T22:41:57.340Z,9.40
2019-05-17T22:44:28.498Z,9.40
2019-05-17T22:47:08.687Z,9.40
2019-05-17T22:49:47.884Z,9.20
2019-05-17T22:52:19.604Z,9.00
2019-05-17T22:54:56.058Z,8.80
2019-05-17T22:57:35.422Z,8.60
2019-05-17T23:00:12.893Z,8.50
2019-05-17T23:02:50.433Z,8.50
2019-05-17T23:05:28.943Z,8.40
2019-05-17T23:08:17.878Z,8.20
2019-05-17T23:11:08.886Z,8.00
2019-05-17T23:13:48.288Z,8.00
2019-05-17T23:16:30.197Z,7.80
2019-05-17T23:19:08.935Z,7.70
2019-05-17T23:21:46.615Z,7.70
2019-05-17T23:24:19.051Z,7.80
2019-05-17T23:26:51.374Z,7.80
2019-05-17T23:29:36.896Z,7.70
2019-05-17T23:32:18.901Z,7.80
2019-05-17T23:35:12.309Z,8.10
2019-05-17T23:38:01.149Z,8.00
2019-05-17T23:40:33.541Z,7.80
2019-05-17T23:43:07.932Z,7.60
2019-05-17T23:45:42.790Z,7.60
2019-05-17T23:48:15.312Z,7.60
2019-05-17T23:50:56.856Z,7.60
2019-05-17T23:53:27.970Z,7.60
2019-05-17T23:55:59.938Z,7.50
2019-05-17T23:58:30.982Z,7.60
